Time;durP1;ratioP1;P1;durP2;ratioP2;P2;SDS_P1;SDS_P2;PMS_P1;PMS_P2;Temp;Humidity;BMP_temperature;BMP_pressure;BME280_temperature;BME280_humidity;BME280_pressure;Samples;Min_cycle;Max_cycle;Signal;HPM_P1;HPM_P2
2021/12/18 00:01:50;;;;;;;60.00;24.20;;;;;;;4.35;100.00;102980.44;8339830;28;20044;-65
2021/12/18 00:05:50;;;;;;;54.25;21.60;;;;;;;4.40;100.00;102978.53;8358473;28;20029;-65
2021/12/18 00:09:53;;;;;;;51.90;22.25;;;;;;;4.33;100.00;102971.59;8356444;28;20043;-64
2021/12/18 00:13:53;;;;;;;53.25;20.98;;;;;;;4.46;100.00;102968.53;8357889;28;20045;-63
2021/12/18 00:17:53;;;;;;;43.78;19.60;;;;;;;4.38;100.00;102964.28;8344387;28;20038;-63
2021/12/18 00:21:54;;;;;;;53.58;22.00;;;;;;;4.32;100.00;102969.81;8334892;28;20053;-63
2021/12/18 00:25:55;;;;;;;40.78;18.05;;;;;;;4.35;100.00;102964.38;8349385;28;20080;-63
2021/12/18 00:29:55;;;;;;;48.65;19.73;;;;;;;3.99;100.00;102961.75;8325788;28;20041;-63
2021/12/18 00:33:56;;;;;;;53.10;19.40;;;;;;;4.39;100.00;102955.34;8354734;28;20622;-63
2021/12/18 00:37:56;;;;;;;53.53;20.88;;;;;;;4.06;100.00;102952.63;8358701;28;20087;-63
2021/12/18 00:42:08;;;;;;;47.53;19.95;;;;;;;3.94;100.00;102952.97;8358349;28;20124;-63
2021/12/18 00:46:08;;;;;;;55.90;22.48;;;;;;;4.32;100.00;102948.38;8345602;28;20083;-63
2021/12/18 00:50:13;;;;;;;43.88;18.17;;;;;;;4.09;100.00;102947.22;8358085;28;20087;-63
2021/12/18 00:54:14;;;;;;;46.25;18.70;;;;;;;3.96;100.00;102940.44;8357325;28;20500;-63
2021/12/18 00:58:14;;;;;;;47.35;20.15;;;;;;;3.73;100.00;102937.44;8357568;28;20401;-63
2021/12/18 01:02:15;;;;;;;52.63;20.70;;;;;;;3.99;100.00;102929.66;8340566;28;20131;-63
2021/12/18 01:06:17;;;;;;;44.10;18.70;;;;;;;3.81;100.00;102932.78;8357749;28;20044;-63
2021/12/18 01:10:35;;;;;;;46.85;19.33;;;;;;;3.65;100.00;102936.78;8357673;28;20436;-63
2021/12/18 01:15:05;;;;;;;46.38;19.50;;;;;;;3.75;100.00;102948.09;8350272;28;20037;-63
2021/12/18 01:23:16;;;;;;;36.88;17.15;;;;;;;3.64;100.00;102960.88;8324347;28;20034;-64
2021/12/18 01:27:18;;;;;;;46.28;19.05;;;;;;;3.64;100.00;102952.84;8324568;28;20032;-64
2021/12/18 01:31:18;;;;;;;44.72;17.58;;;;;;;3.56;100.00;102950.38;8333589;28;20558;-64
2021/12/18 01:35:19;;;;;;;52.88;20.08;;;;;;;3.66;100.00;102946.53;8356880;28;20439;-64
2021/12/18 01:39:19;;;;;;;50.88;21.58;;;;;;;3.74;100.00;102943.69;8357195;28;20466;-65
2021/12/18 01:52:15;;;;;;;45.47;19.67;;;;;;;4.16;100.00;102952.41;8355399;28;20049;-65
2021/12/18 01:56:16;;;;;;;50.22;20.42;;;;;;;4.22;100.00;102945.09;8356561;28;20566;-63
2021/12/18 02:00:20;;;;;;;49.92;19.80;;;;;;;4.25;100.00;102946.81;8356536;28;20041;-63
2021/12/18 02:04:20;;;;;;;44.83;20.60;;;;;;;4.36;100.00;102950.09;8350515;28;20038;-63
2021/12/18 02:08:24;;;;;;;50.63;20.48;;;;;;;4.53;100.00;102947.81;8340791;28;20116;-63
2021/12/18 02:12:33;;;;;;;45.70;19.30;;;;;;;4.53;100.00;102942.44;8328919;28;20029;-63
2021/12/18 02:20:54;;;;;;;44.42;20.27;;;;;;;4.45;100.00;102948.00;8323347;28;20113;-63
2021/12/18 02:24:55;;;;;;;44.13;18.90;;;;;;;4.52;100.00;102946.06;8342877;28;20048;-63
2021/12/18 02:28:58;;;;;;;45.10;19.15;;;;;;;4.58;100.00;102944.09;8341632;28;20504;-63
2021/12/18 02:32:59;;;;;;;49.28;19.77;;;;;;;4.57;100.00;102946.81;8352961;28;20033;-63
2021/12/18 02:37:05;;;;;;;50.58;20.05;;;;;;;4.86;100.00;102946.84;8362001;28;24191;-63
2021/12/18 02:41:13;;;;;;;50.50;20.77;;;;;;;4.97;100.00;102939.38;8369897;28;20515;-63
2021/12/18 02:45:14;;;;;;;55.75;22.63;;;;;;;4.78;100.00;102932.78;8361593;28;20103;-63
2021/12/18 02:49:16;;;;;;;49.80;20.45;;;;;;;4.91;100.00;102939.56;8340579;28;20130;-63
2021/12/18 02:53:17;;;;;;;48.33;19.58;;;;;;;5.06;100.00;102933.75;8307713;28;20454;-63
2021/12/18 02:57:18;;;;;;;59.53;24.10;;;;;;;4.91;100.00;102923.47;8324897;28;20030;-63
2021/12/18 03:01:22;;;;;;;53.17;20.30;;;;;;;5.00;100.00;102928.56;8334846;28;20041;-63
2021/12/18 03:05:31;;;;;;;54.78;21.75;;;;;;;5.02;100.00;102926.69;8357840;28;20033;-63
2021/12/18 03:19:07;;;;;;;55.40;21.88;;;;;;;5.24;100.00;102917.06;8359805;28;20349;-63
2021/12/18 03:20:33;;;;;;;57.38;22.50;;;;;;;5.34;100.00;102913.19;8343581;28;20055;-63
2021/12/18 03:22:54;;;;;;;60.90;23.27;;;;;;;5.49;100.00;102907.31;8344289;28;20092;-63
2021/12/18 03:26:54;;;;;;;64.72;25.25;;;;;;;5.50;100.00;102909.94;8324346;28;20393;-63
2021/12/18 03:30:55;;;;;;;50.88;20.77;;;;;;;5.53;100.00;102901.81;8331065;28;20065;-63
2021/12/18 03:34:56;;;;;;;60.25;24.92;;;;;;;5.51;100.00;102910.81;8356898;28;20067;-63
2021/12/18 03:38:56;;;;;;;61.60;24.25;;;;;;;5.66;100.00;102900.47;8340337;28;20324;-63
2021/12/18 03:42:57;;;;;;;62.63;25.58;;;;;;;5.64;100.00;102904.09;8324564;28;20452;-63
2021/12/18 03:46:57;;;;;;;62.85;25.42;;;;;;;5.74;100.00;102905.56;8322444;28;20529;-63
2021/12/18 03:50:58;;;;;;;66.10;26.20;;;;;;;5.78;100.00;102899.16;8323598;28;20507;-63
2021/12/18 03:54:59;;;;;;;68.97;25.10;;;;;;;5.83;100.00;102899.94;8323342;28;20265;-63
2021/12/18 03:59:00;;;;;;;70.15;25.40;;;;;;;5.84;100.00;102893.63;8323413;28;20088;-63
2021/12/18 04:03:01;;;;;;;64.35;24.20;;;;;;;5.81;100.00;102894.63;8347417;28;20075;-63
2021/12/18 04:07:03;;;;;;;74.50;28.55;;;;;;;5.84;100.00;102899.00;8355629;28;20572;-63
2021/12/18 04:11:04;;;;;;;75.38;29.58;;;;;;;5.96;100.00;102890.50;8348600;28;20041;-63
2021/12/18 04:15:05;;;;;;;74.53;28.77;;;;;;;5.97;100.00;102900.31;8336161;28;20549;-63
2021/12/18 04:19:06;;;;;;;70.68;26.17;;;;;;;5.96;100.00;102898.56;8351799;28;20522;-63
2021/12/18 04:23:06;;;;;;;71.05;27.95;;;;;;;6.01;100.00;102901.97;8355505;28;20029;-63
2021/12/18 04:27:07;;;;;;;75.47;27.70;;;;;;;6.07;100.00;102906.25;8345618;28;20110;-63
2021/12/18 04:31:07;;;;;;;64.47;26.92;;;;;;;5.98;100.00;102907.47;8334864;28;20028;-63
2021/12/18 04:35:08;;;;;;;74.70;28.67;;;;;;;6.00;100.00;102910.94;8355216;28;20044;-63
2021/12/18 04:39:08;;;;;;;85.53;30.20;;;;;;;6.14;100.00;102919.41;8353025;28;20072;-63
2021/12/18 04:43:08;;;;;;;82.50;29.67;;;;;;;6.18;100.00;102930.91;8338148;28;20048;-63
2021/12/18 04:47:09;;;;;;;79.93;29.60;;;;;;;6.20;100.00;102932.63;8321211;28;20029;-63
2021/12/18 04:51:09;;;;;;;65.95;27.65;;;;;;;6.11;100.00;102924.91;8321864;28;20033;-63
2021/12/18 04:55:10;;;;;;;76.22;27.13;;;;;;;6.08;100.00;102925.00;8320107;28;20037;-63
2021/12/18 04:59:11;;;;;;;88.10;30.23;;;;;;;6.22;100.00;102928.06;8321297;28;20030;-63
2021/12/18 05:03:14;;;;;;;75.68;29.83;;;;;;;6.25;100.00;102930.63;8342041;28;20037;-63
2021/12/18 05:07:14;;;;;;;85.68;29.23;;;;;;;6.22;100.00;102930.75;8329080;28;20497;-63
2021/12/18 05:11:15;;;;;;;80.88;28.25;;;;;;;6.27;100.00;102928.78;8337800;28;20446;-63
2021/12/18 05:15:15;;;;;;;80.60;31.20;;;;;;;6.25;100.00;102933.31;8353582;28;20139;-63
2021/12/18 05:19:16;;;;;;;80.95;29.88;;;;;;;6.29;100.00;102929.63;8354166;28;20083;-63
2021/12/18 05:23:16;;;;;;;73.85;27.80;;;;;;;6.31;100.00;102922.38;8353821;28;20032;-63
2021/12/18 05:27:17;;;;;;;80.85;28.77;;;;;;;6.36;100.00;102924.88;8353530;28;20116;-63
2021/12/18 05:31:17;;;;;;;87.20;31.33;;;;;;;6.38;100.00;102923.03;8353859;28;20112;-63
2021/12/18 05:35:18;;;;;;;82.90;30.08;;;;;;;6.37;100.00;102911.41;8353865;28;20064;-63
2021/12/18 05:39:18;;;;;;;76.20;28.65;;;;;;;6.38;100.00;102915.84;8353342;28;20053;-63
2021/12/18 05:43:19;;;;;;;92.57;31.08;;;;;;;6.34;100.00;102919.56;8344820;28;20044;-63
2021/12/18 05:47:19;;;;;;;88.82;29.80;;;;;;;6.34;100.00;102922.25;8341645;28;20103;-63
2021/12/18 05:51:20;;;;;;;77.15;29.95;;;;;;;6.36;100.00;102931.16;8353397;28;20086;-63
2021/12/18 05:55:23;;;;;;;83.68;28.60;;;;;;;6.35;100.00;102926.72;8352006;28;20345;-63
2021/12/18 05:59:23;;;;;;;81.35;29.88;;;;;;;6.39;100.00;102933.72;8358240;28;20033;-64
2021/12/18 06:03:24;;;;;;;95.65;30.33;;;;;;;6.39;100.00;102931.03;8341340;28;20079;-64
2021/12/18 06:07:31;;;;;;;94.00;29.77;;;;;;;6.39;100.00;102930.16;8342197;28;20033;-64
2021/12/18 06:11:32;;;;;;;101.22;33.05;;;;;;;6.37;100.00;102930.19;8325766;28;20050;-64
2021/12/18 06:15:33;;;;;;;100.95;30.23;;;;;;;6.34;100.00;102916.88;8324440;28;20489;-64
2021/12/18 06:19:33;;;;;;;103.47;32.15;;;;;;;6.47;100.00;102923.59;8334471;28;20460;-64
2021/12/18 06:23:34;;;;;;;98.38;31.55;;;;;;;6.45;100.00;102908.44;8335822;28;20393;-64
2021/12/18 06:27:35;;;;;;;104.53;31.75;;;;;;;6.46;100.00;102924.50;8324573;28;20535;-64
2021/12/18 06:31:37;;;;;;;117.32;33.22;;;;;;;6.50;100.00;102923.47;8335274;28;20641;-64
2021/12/18 06:35:37;;;;;;;123.22;35.63;;;;;;;6.48;100.00;102925.34;8340616;28;20515;-64
2021/12/18 06:39:38;;;;;;;121.43;34.80;;;;;;;6.48;100.00;102925.34;8336132;28;20033;-64
2021/12/18 06:43:38;;;;;;;144.88;37.13;;;;;;;6.47;100.00;102925.38;8325593;28;20477;-64
2021/12/18 06:47:40;;;;;;;151.20;37.05;;;;;;;6.45;100.00;102930.81;8335495;28;20045;-64
2021/12/18 06:51:40;;;;;;;162.50;38.13;;;;;;;6.48;100.00;102940.56;8336400;28;20084;-63
2021/12/18 06:55:41;;;;;;;154.52;37.22;;;;;;;6.46;100.00;102931.72;8323408;28;20040;-64
2021/12/18 06:59:41;;;;;;;200.13;42.28;;;;;;;6.44;100.00;102938.94;8324809;28;20437;-64
2021/12/18 07:03:42;;;;;;;203.98;40.55;;;;;;;6.47;100.00;102938.81;8354457;28;20424;-64
2021/12/18 07:07:42;;;;;;;195.45;40.22;;;;;;;6.49;100.00;102943.19;8334731;28;20132;-64
2021/12/18 07:11:44;;;;;;;189.73;37.70;;;;;;;6.49;100.00;102937.81;8338288;28;20057;-64
2021/12/18 07:15:44;;;;;;;205.35;36.42;;;;;;;6.49;100.00;102937.81;8322007;28;20032;-64
2021/12/18 07:19:44;;;;;;;208.35;35.60;;;;;;;6.49;100.00;102935.13;8324485;28;20038;-64
2021/12/18 07:23:45;;;;;;;201.45;35.80;;;;;;;6.52;100.00;102944.91;8332205;28;20467;-64
2021/12/18 07:27:45;;;;;;;234.02;35.65;;;;;;;6.51;100.00;102954.78;8332711;28;20386;-64
2021/12/18 07:31:46;;;;;;;240.48;36.85;;;;;;;6.51;100.00;102952.09;8338342;28;20037;-64
2021/12/18 07:35:46;;;;;;;247.18;35.15;;;;;;;6.54;100.00;102946.59;8353887;28;20083;-64
2021/12/18 07:39:47;;;;;;;243.50;37.50;;;;;;;6.52;100.00;102959.22;8333023;28;20046;-64
2021/12/18 07:43:47;;;;;;;242.20;35.47;;;;;;;6.50;100.00;102944.97;8338190;28;20120;-64
2021/12/18 07:47:48;;;;;;;250.55;37.10;;;;;;;6.55;100.00;102953.72;8339653;28;20029;-63
2021/12/18 07:51:48;;;;;;;271.50;40.95;;;;;;;6.56;100.00;102944.72;8350486;28;20511;-63
2021/12/18 07:55:50;;;;;;;260.17;35.60;;;;;;;6.55;100.00;102945.66;8345133;28;20404;-63
2021/12/18 07:59:50;;;;;;;269.42;37.72;;;;;;;6.52;100.00;102940.41;8331442;28;20356;-63
2021/12/18 08:03:51;;;;;;;253.02;37.40;;;;;;;6.57;100.00;102943.81;8340535;28;20045;-63
2021/12/18 08:07:51;;;;;;;232.25;36.65;;;;;;;6.60;100.00;102941.00;8336487;28;20037;-63
2021/12/18 08:11:51;;;;;;;242.10;36.22;;;;;;;6.57;100.00;102946.50;8319772;28;20174;-63
2021/12/18 08:15:52;;;;;;;235.60;35.83;;;;;;;6.62;100.00;102935.59;8339241;28;20042;-63
2021/12/18 08:19:52;;;;;;;211.30;32.38;;;;;;;6.57;100.00;102943.81;8327005;28;20045;-63
2021/12/18 08:23:53;;;;;;;249.50;34.38;;;;;;;6.63;100.00;102938.22;8335371;28;20029;-63
2021/12/18 08:27:56;;;;;;;210.05;33.88;;;;;;;6.62;100.00;102949.88;8334160;28;20553;-63
2021/12/18 08:31:57;;;;;;;210.38;32.25;;;;;;;6.66;100.00;102945.28;8333940;28;20065;-63
2021/12/18 08:35:57;;;;;;;200.55;31.88;;;;;;;6.65;100.00;102943.53;8335709;28;20087;-63
2021/12/18 08:39:57;;;;;;;175.55;28.70;;;;;;;6.66;100.00;102938.09;8340119;28;20049;-63
2021/12/18 08:43:58;;;;;;;205.98;33.58;;;;;;;6.68;100.00;102935.34;8329909;28;20047;-63
2021/12/18 08:47:59;;;;;;;213.40;33.80;;;;;;;6.70;100.00;102936.16;8344053;28;20560;-63
2021/12/18 08:51:59;;;;;;;205.52;32.60;;;;;;;6.72;100.00;102934.31;8320895;28;20033;-63
2021/12/18 08:56:00;;;;;;;167.25;29.05;;;;;;;6.71;100.00;102930.72;8332804;28;20068;-63
2021/12/18 09:00:00;;;;;;;181.25;31.85;;;;;;;6.75;100.00;102935.06;8333568;28;20068;-63
2021/12/18 09:04:01;;;;;;;160.00;27.13;;;;;;;6.71;100.00;102927.19;8335455;28;20049;-63
2021/12/18 09:08:01;;;;;;;170.00;30.08;;;;;;;6.76;100.00;102931.44;8324519;28;20115;-63
2021/12/18 09:12:02;;;;;;;166.32;28.88;;;;;;;6.83;100.00;102932.09;8318775;28;20048;-63
2021/12/18 09:16:03;;;;;;;174.43;29.30;;;;;;;6.86;100.00;102932.84;8300764;28;20504;-63
2021/12/18 09:20:04;;;;;;;185.75;29.30;;;;;;;6.87;100.00;102937.31;8319006;28;20038;-63
2021/12/18 09:24:05;;;;;;;160.38;29.08;;;;;;;6.89;100.00;102937.25;8318752;28;20401;-63
2021/12/18 09:28:06;;;;;;;152.32;27.30;;;;;;;6.83;100.00;102937.47;8319101;28;20148;-63
2021/12/18 09:32:06;;;;;;;156.38;26.75;;;;;;;6.86;100.00;102935.53;8338329;28;20044;-63
2021/12/18 09:36:07;;;;;;;138.80;30.23;;;;;;;6.91;100.00;102940.72;8355744;28;20098;-63
2021/12/18 09:40:11;;;;;;;141.45;27.13;;;;;;;7.03;100.00;102934.88;8357269;28;20090;-63
2021/12/18 09:44:11;;;;;;;135.23;25.37;;;;;;;7.04;100.00;102942.91;8341483;28;20045;-63
2021/12/18 09:48:12;;;;;;;149.65;27.10;;;;;;;7.05;100.00;102949.16;8345491;28;20068;-63
2021/12/18 09:52:12;;;;;;;134.02;26.58;;;;;;;7.12;100.00;102946.19;8341426;28;20127;-63
2021/12/18 09:56:13;;;;;;;135.88;28.20;;;;;;;7.17;100.00;102943.31;8344439;28;20071;-63
2021/12/18 10:00:18;;;;;;;123.72;25.30;;;;;;;7.18;100.00;102940.56;8352778;28;20068;-63
2021/12/18 10:04:25;;;;;;;110.00;25.42;;;;;;;7.14;100.00;102933.53;8330148;28;20033;-63
2021/12/18 10:08:26;;;;;;;118.40;24.20;;;;;;;7.19;100.00;102936.03;8330985;28;20029;-63
2021/12/18 10:12:30;;;;;;;109.75;25.48;;;;;;;7.21;100.00;102935.06;8330658;28;20055;-63
2021/12/18 10:16:31;;;;;;;86.47;21.63;;;;;;;7.22;100.00;102934.13;8330661;28;20121;-63
2021/12/18 10:20:32;;;;;;;95.70;25.63;;;;;;;7.27;100.00;102929.44;8330947;28;20545;-62
2021/12/18 10:24:36;;;;;;;89.38;24.83;;;;;;;7.24;100.00;102924.19;8330761;28;20124;-62
2021/12/18 10:28:45;;;;;;;88.00;23.00;;;;;;;7.36;100.00;102926.38;8334857;28;20038;-62
2021/12/18 10:33:07;;;;;;;92.88;21.08;;;;;;;7.27;100.00;102909.72;8330890;28;20048;-62
2021/12/18 10:37:25;;;;;;;72.47;19.55;;;;;;;7.20;100.00;102911.75;8343125;28;20532;-62
2021/12/18 10:41:32;;;;;;;65.10;16.77;;;;;;;7.20;100.00;102901.00;8333090;28;20072;-62
2021/12/18 10:45:34;;;;;;;76.20;18.10;;;;;;;7.28;100.00;102896.22;8338106;28;20111;-64
2021/12/18 10:49:41;;;;;;;71.65;19.75;;;;;;;7.36;100.00;102901.28;8331867;28;20026;-64
2021/12/18 10:53:42;;;;;;;58.28;16.30;;;;;;;7.33;100.00;102902.28;8316980;28;20116;-64
2021/12/18 10:57:51;;;;;;;70.22;18.60;;;;;;;7.40;100.00;102893.03;8336451;28;20536;-63
2021/12/18 11:01:54;;;;;;;65.63;18.38;;;;;;;7.45;100.00;102888.34;8336863;28;20211;-63
2021/12/18 11:06:16;;;;;;;55.70;16.33;;;;;;;7.43;100.00;102882.13;8334123;28;20076;-64
2021/12/18 11:11:05;;;;;;;49.85;13.90;;;;;;;7.43;100.00;102874.06;8330876;28;20114;-64
2021/12/18 11:14:45;;;;;;;51.63;15.45;;;;;;;7.34;100.00;102871.75;8320023;28;20405;-64
2021/12/18 11:18:46;;;;;;;57.10;16.23;;;;;;;7.36;100.00;102875.25;8320083;28;20087;-64
2021/12/18 11:22:49;;;;;;;55.50;15.48;;;;;;;7.32;100.00;102881.69;8324724;28;20515;-64
2021/12/18 11:27:09;;;;;;;59.42;16.98;;;;;;;7.28;100.00;102865.72;8354051;28;20392;-64
2021/12/18 11:31:10;;;;;;;60.08;16.98;;;;;;;7.33;100.00;102864.63;8357209;28;20443;-64
2021/12/18 11:35:15;;;;;;;56.17;15.90;;;;;;;7.37;100.00;102862.66;8371708;28;20123;-64
2021/12/18 11:39:18;;;;;;;65.57;18.08;;;;;;;7.33;100.00;102859.25;8372285;28;20041;-64
2021/12/18 11:43:44;;;;;;;55.40;16.67;;;;;;;7.35;100.00;102851.94;8366469;28;20075;-63
2021/12/18 11:47:53;;;;;;;49.20;16.20;;;;;;;7.34;100.00;102852.91;8353847;28;20357;-64
2021/12/18 11:52:04;;;;;;;58.50;17.77;;;;;;;7.37;100.00;102844.72;8364427;28;20049;-64
2021/12/18 11:56:05;;;;;;;59.10;16.95;;;;;;;7.28;100.00;102846.88;8368093;28;20040;-64
2021/12/18 12:00:27;;;;;;;61.30;17.60;;;;;;;7.39;100.00;102842.84;8369939;28;20100;-64
2021/12/18 12:05:04;;;;;;;57.13;17.20;;;;;;;7.36;100.00;102842.06;8353149;28;20035;-64
2021/12/18 12:09:33;;;;;;;58.08;19.40;;;;;;;7.32;100.00;102841.31;8369143;28;20047;-64
2021/12/18 12:14:11;;;;;;;58.60;18.50;;;;;;;7.28;100.00;102839.69;8363853;28;20995;-64
2021/12/18 12:18:11;;;;;;;67.40;19.60;;;;;;;7.50;100.00;102829.78;8365680;28;20380;-64
2021/12/18 12:22:34;;;;;;;66.65;19.25;;;;;;;7.44;100.00;102824.66;8362736;28;20051;-64
2021/12/18 12:26:35;;;;;;;55.70;20.25;;;;;;;7.57;100.00;102825.03;8372997;28;20399;-64
2021/12/18 12:30:49;;;;;;;55.38;18.98;;;;;;;7.53;100.00;102824.28;8366481;28;20031;-64
2021/12/18 12:35:12;;;;;;;60.87;17.53;;;;;;;7.61;100.00;102827.53;8379443;28;20491;-64
2021/12/18 12:39:14;;;;;;;66.13;19.03;;;;;;;7.52;100.00;102827.03;8362363;28;20053;-64
2021/12/18 12:43:22;;;;;;;65.25;18.38;;;;;;;7.45;100.00;102812.09;8371657;28;20082;-64
2021/12/18 12:47:26;;;;;;;55.20;18.15;;;;;;;7.47;100.00;102811.06;8378266;28;20116;-63
2021/12/18 12:52:04;;;;;;;65.45;20.33;;;;;;;7.42;100.00;102807.72;8378113;28;20168;-64
2021/12/18 12:56:14;;;;;;;63.67;19.48;;;;;;;7.33;100.00;102800.03;8350494;28;20044;-64
2021/12/18 13:04:27;;;;;;;60.30;18.15;;;;;;;7.46;100.00;102803.06;8473357;27;20115;-62
2021/12/18 13:08:29;;;;;;;72.65;20.13;;;;;;;7.44;100.00;102795.06;8481803;28;20150;-62
2021/12/18 13:12:30;;;;;;;60.38;19.88;;;;;;;7.47;100.00;102796.72;8463721;28;20447;-62
2021/12/18 13:16:30;;;;;;;64.90;20.50;;;;;;;7.44;100.00;102796.91;8443391;28;20374;-62
2021/12/18 13:20:45;;;;;;;66.85;20.40;;;;;;;7.55;100.00;102790.09;8390094;28;20492;-62
2021/12/18 13:25:04;;;;;;;68.25;20.05;;;;;;;7.55;100.00;102790.09;8397331;28;20048;-62
2021/12/18 13:29:21;;;;;;;64.60;19.90;;;;;;;7.55;100.00;102784.72;8403202;28;20083;-62
2021/12/18 13:33:25;;;;;;;73.57;22.48;;;;;;;7.60;100.00;102774.59;8404371;28;20499;-62
2021/12/18 13:37:26;;;;;;;84.18;23.08;;;;;;;7.57;100.00;102772.06;8398736;28;20436;-62
2021/12/18 13:41:26;;;;;;;67.65;19.77;;;;;;;7.57;100.00;102772.06;8421668;28;20035;-62
2021/12/18 13:45:27;;;;;;;67.32;20.33;;;;;;;7.62;100.00;102775.44;8392399;28;20120;-62
2021/12/18 13:49:29;;;;;;;54.28;18.40;;;;;;;7.61;100.00;102762.94;8409462;28;20037;-62
2021/12/18 13:53:32;;;;;;;61.10;17.90;;;;;;;7.65;100.00;102758.25;8393998;28;20036;-62
2021/12/18 13:57:32;;;;;;;69.90;20.60;;;;;;;7.66;100.00;102760.88;8395410;28;20135;-62
2021/12/18 14:01:32;;;;;;;68.63;20.45;;;;;;;7.68;100.00;102761.69;8391390;28;20452;-62
2021/12/18 14:05:33;;;;;;;66.20;19.70;;;;;;;7.72;100.00;102755.22;8396995;28;20043;-62
2021/12/18 14:09:35;;;;;;;59.05;18.48;;;;;;;7.70;100.00;102767.91;8409836;28;20089;-62
2021/12/18 14:13:47;;;;;;;58.75;18.05;;;;;;;7.68;100.00;102766.19;8391871;28;20124;-62
2021/12/18 14:17:47;;;;;;;64.07;17.58;;;;;;;7.68;100.00;102759.00;8358822;28;20044;-62
2021/12/18 14:21:49;;;;;;;69.88;18.55;;;;;;;7.66;100.00;102752.81;8382152;28;20083;-62
2021/12/18 14:30:32;;;;;;;60.72;18.52;;;;;;;7.66;100.00;102763.56;8373909;27;20977;-62
2021/12/18 14:34:35;;;;;;;60.60;19.63;;;;;;;7.61;100.00;102762.03;8376671;28;20037;-62
2021/12/18 14:38:35;;;;;;;67.00;18.98;;;;;;;7.65;100.00;102764.53;8376308;28;20036;-62
2021/12/18 14:42:42;;;;;;;63.10;18.67;;;;;;;7.61;100.00;102757.53;8376194;28;20040;-62
2021/12/18 14:46:42;;;;;;;61.50;18.50;;;;;;;7.56;100.00;102756.84;8358636;28;20044;-62
2021/12/18 14:50:47;;;;;;;71.55;19.83;;;;;;;7.52;100.00;102752.56;8375754;28;20110;-62
2021/12/18 14:54:48;;;;;;;;;;;;;;;7.38;100.00;102754.94;8376358;28;20445;-62
2021/12/18 14:58:50;;;;;;;76.03;21.10;;;;;;;7.28;100.00;102756.28;8354755;28;20022;-63
2021/12/18 15:07:28;;;;;;;71.78;19.58;;;;;;;7.31;100.00;102757.97;8377971;27;20470;-63
2021/12/18 15:15:43;;;;;;;104.45;23.85;;;;;;;7.43;100.00;102763.72;8395126;27;20432;-63
2021/12/18 15:19:43;;;;;;;96.50;22.52;;;;;;;7.45;100.00;102751.09;8388779;28;20033;-63
2021/12/18 15:23:45;;;;;;;102.68;26.00;;;;;;;7.43;100.00;102750.25;8369806;28;20039;-63
2021/12/18 15:27:45;;;;;;;109.85;27.67;;;;;;;7.40;100.00;102758.47;8381362;28;20048;-63
2021/12/18 15:31:47;;;;;;;110.20;27.63;;;;;;;7.38;100.00;102749.56;8383911;28;20051;-63
2021/12/18 15:35:48;;;;;;;109.57;28.75;;;;;;;7.34;100.00;102742.59;8379010;28;20064;-63
2021/12/18 15:39:48;;;;;;;101.88;27.60;;;;;;;7.39;100.00;102737.00;8372357;28;20085;-63
2021/12/18 15:43:49;;;;;;;123.63;28.55;;;;;;;7.36;100.00;102739.81;8395454;28;20052;-63
2021/12/18 15:47:49;;;;;;;118.22;29.58;;;;;;;7.35;100.00;102733.56;8363947;28;20024;-63
2021/12/18 15:51:50;;;;;;;132.77;28.58;;;;;;;7.35;100.00;102733.56;8361722;28;20115;-63
2021/12/18 15:55:50;;;;;;;139.35;30.70;;;;;;;7.33;100.00;102732.78;8360781;28;20107;-63
2021/12/18 15:59:51;;;;;;;136.82;28.05;;;;;;;7.36;100.00;102738.03;8361480;28;20039;-63
2021/12/18 16:03:51;;;;;;;129.15;28.48;;;;;;;7.32;100.00;102739.06;8392212;28;20085;-63
2021/12/18 16:07:53;;;;;;;132.80;28.23;;;;;;;7.34;100.00;102745.28;8385278;28;20041;-63
2021/12/18 16:11:54;;;;;;;140.65;27.63;;;;;;;7.30;100.00;102740.97;8373438;28;20062;-63
2021/12/18 16:15:54;;;;;;;137.40;31.45;;;;;;;7.30;100.00;102740.97;8343054;28;20045;-63
2021/12/18 16:19:55;;;;;;;130.75;31.27;;;;;;;7.24;100.00;102735.84;8360239;28;20051;-63
2021/12/18 16:23:56;;;;;;;148.50;30.63;;;;;;;7.25;100.00;102748.34;8356308;28;20052;-63
2021/12/18 16:27:57;;;;;;;143.68;29.30;;;;;;;7.26;100.00;102754.63;8341774;28;20073;-63
2021/12/18 16:31:57;;;;;;;138.88;29.95;;;;;;;7.27;100.00;102751.88;8367993;28;20041;-63
2021/12/18 16:35:58;;;;;;;125.93;27.73;;;;;;;7.28;100.00;102753.59;8368865;28;20049;-63
2021/12/18 16:40:00;;;;;;;122.55;27.20;;;;;;;7.26;100.00;102749.25;8371341;28;20071;-63
2021/12/18 16:44:01;;;;;;;120.63;24.92;;;;;;;7.25;100.00;102759.13;8359322;28;20400;-63
2021/12/18 16:48:02;;;;;;;113.57;23.75;;;;;;;7.27;100.00;102745.59;8358423;28;20083;-63
2021/12/18 16:52:03;;;;;;;134.20;26.70;;;;;;;7.29;100.00;102746.41;8347890;28;20044;-63
2021/12/18 16:56:05;;;;;;;129.23;26.38;;;;;;;7.29;100.00;102736.50;8355856;28;20055;-63
2021/12/18 17:00:06;;;;;;;130.35;26.63;;;;;;;7.27;100.00;102738.41;8357293;28;20456;-63
2021/12/18 17:04:16;;;;;;;109.13;24.92;;;;;;;7.33;100.00;102727.38;8356284;28;20041;-64
2021/12/18 17:08:17;;;;;;;108.10;24.80;;;;;;;7.32;100.00;102738.22;8364695;28;20119;-63
2021/12/18 17:12:17;;;;;;;101.30;23.85;;;;;;;7.30;100.00;102740.97;8364450;28;20037;-64
2021/12/18 17:16:20;;;;;;;102.38;24.42;;;;;;;7.30;100.00;102732.91;8337227;28;20276;-63
2021/12/18 17:20:22;;;;;;;110.20;24.85;;;;;;;7.34;100.00;102734.50;8337179;28;20036;-63
2021/12/18 17:24:22;;;;;;;109.20;25.10;;;;;;;7.34;100.00;102737.19;8337485;28;20528;-63
2021/12/18 17:28:23;;;;;;;98.35;23.40;;;;;;;7.30;100.00;102737.41;8353007;28;20036;-63
2021/12/18 17:32:26;;;;;;;97.60;23.17;;;;;;;7.26;100.00;102736.63;8363480;28;20120;-64
2021/12/18 17:36:27;;;;;;;95.57;21.52;;;;;;;7.29;100.00;102728.44;8347721;28;20045;-64
2021/12/18 17:40:27;;;;;;;96.88;23.00;;;;;;;7.34;100.00;102726.44;8349918;28;20120;-64
2021/12/18 17:44:28;;;;;;;92.38;22.13;;;;;;;7.35;100.00;102716.56;8349287;28;20040;-64
2021/12/18 17:48:29;;;;;;;95.97;22.30;;;;;;;7.29;100.00;102723.06;8342876;28;20072;-64
2021/12/18 17:52:30;;;;;;;92.30;22.75;;;;;;;7.33;100.00;102724.69;8351399;28;20037;-64
2021/12/18 17:56:30;;;;;;;103.18;22.63;;;;;;;7.37;100.00;102726.31;8339447;28;20047;-64
2021/12/18 18:00:31;;;;;;;96.07;24.92;;;;;;;7.37;100.00;102731.69;8345676;28;20967;-64
2021/12/18 18:04:31;;;;;;;99.50;22.58;;;;;;;7.38;100.00;102728.03;8349652;28;20052;-64
2021/12/18 18:08:32;;;;;;;98.55;24.10;;;;;;;7.36;100.00;102719.19;8353529;28;20040;-64
2021/12/18 18:12:33;;;;;;;113.50;23.92;;;;;;;7.37;100.00;102717.34;8355740;28;20483;-64
2021/12/18 18:16:34;;;;;;;108.70;24.83;;;;;;;7.36;100.00;102713.81;8338142;28;20068;-64
2021/12/18 18:20:35;;;;;;;112.45;25.38;;;;;;;7.37;100.00;102709.28;8340689;28;20827;-64
2021/12/18 18:24:35;;;;;;;111.97;26.42;;;;;;;7.37;100.00;102712.84;8354424;28;20535;-64
2021/12/18 18:28:36;;;;;;;112.03;24.75;;;;;;;7.43;100.00;102719.78;8358401;28;20044;-64
2021/12/18 18:32:36;;;;;;;95.93;21.25;;;;;;;7.43;100.00;102723.34;8340187;28;20120;-64
2021/12/18 18:36:39;;;;;;;116.43;24.63;;;;;;;7.48;100.00;102724.00;8346991;28;20336;-65
2021/12/18 18:40:41;;;;;;;113.88;25.33;;;;;;;7.43;100.00;102715.28;8363441;28;20455;-64
2021/12/18 18:44:45;;;;;;;121.22;24.17;;;;;;;7.50;100.00;102711.38;8347034;28;20109;-63
2021/12/18 18:48:46;;;;;;;115.22;27.15;;;;;;;7.52;100.00;102709.50;8333774;28;20306;-63
2021/12/18 18:52:46;;;;;;;142.57;27.00;;;;;;;7.51;100.00;102713.09;8340647;28;20124;-63
2021/12/18 18:56:46;;;;;;;144.32;29.15;;;;;;;7.50;100.00;102711.38;8350491;28;20041;-63
2021/12/18 19:00:47;;;;;;;169.27;33.17;;;;;;;7.50;100.00;102711.38;8354056;28;20376;-63